createdAt,value
2022-11-27T00:00:31.177Z,1021
2022-11-27T00:01:34.604Z,1021
2022-11-27T00:02:41.447Z,1021
2022-11-27T00:03:45.880Z,1021
2022-11-27T00:04:51.804Z,1021
2022-11-27T00:05:56.187Z,1020.9
2022-11-27T00:06:59.584Z,1020.9
2022-11-27T00:08:02.745Z,1020.8
2022-11-27T00:09:06.027Z,1020.9
2022-11-27T00:10:09.734Z,1020.8
2022-11-27T00:11:12.785Z,1020.7
2022-11-27T00:12:15.565Z,1020.7
2022-11-27T00:13:18.420Z,1020.7
2022-11-27T00:14:21.510Z,1020.7
2022-11-27T00:15:24.982Z,1020.6
2022-11-27T00:16:28.575Z,1020.6
2022-11-27T00:17:32.270Z,1020.6
2022-11-27T00:18:35.501Z,1020.6
2022-11-27T00:19:39.870Z,1020.6
2022-11-27T00:20:44.051Z,1020.6
2022-11-27T00:21:47.803Z,1020.5
2022-11-27T00:22:50.847Z,1020.5
2022-11-27T00:23:54.124Z,1020.5
2022-11-27T00:24:57.580Z,1020.5
2022-11-27T00:26:00.411Z,1020.5
2022-11-27T00:27:03.186Z,1020.5
2022-11-27T00:28:06.185Z,1020.5
2022-11-27T00:29:09.776Z,1020.6
2022-11-27T00:30:12.730Z,1020.5
2022-11-27T00:31:15.899Z,1020.5
2022-11-27T00:32:18.710Z,1020.5
2022-11-27T00:33:22.141Z,1020.5
2022-11-27T00:34:25.163Z,1020.4
2022-11-27T00:35:28.283Z,1020.4
2022-11-27T00:36:31.320Z,1020.3
2022-11-27T00:37:34.837Z,1020.3
2022-11-27T00:38:39.815Z,1020.3
2022-11-27T00:39:43.229Z,1020.3
2022-11-27T00:40:46.083Z,1020.3
2022-11-27T00:42:53.453Z,1020.3
2022-11-27T00:43:56.229Z,1020.3
2022-11-27T00:44:59.578Z,1020.3
2022-11-27T00:46:02.812Z,1020.2
2022-11-27T00:47:06.602Z,1020.2
2022-11-27T00:48:10.009Z,1020.2
2022-11-27T00:49:13.553Z,1020.2
2022-11-27T00:50:16.129Z,1020.2
2022-11-27T00:51:18.906Z,1020.2
2022-11-27T00:52:21.375Z,1020.1
2022-11-27T00:53:24.973Z,1020.1
2022-11-27T00:54:28.409Z,1020.1
2022-11-27T00:55:31.210Z,1020
2022-11-27T00:56:33.982Z,1020.1
2022-11-27T00:57:36.489Z,1020.1
2022-11-27T00:58:39.064Z,1020.1
2022-11-27T00:59:41.201Z,1020.1
2022-11-27T01:00:44.327Z,1020.1
2022-11-27T01:01:47.458Z,1020
2022-11-27T01:02:50.456Z,1020
2022-11-27T01:03:53.874Z,1020
2022-11-27T01:04:57.348Z,1020
2022-11-27T01:06:00.154Z,1020.1
2022-11-27T01:07:03.587Z,1020.1
2022-11-27T01:08:06.835Z,1020
2022-11-27T01:09:10.037Z,1020
2022-11-27T01:10:12.169Z,1020
2022-11-27T01:11:14.661Z,1020
2022-11-27T01:12:17.423Z,1020.1
2022-11-27T01:13:20.846Z,1020.2
2022-11-27T01:14:23.862Z,1020.2
2022-11-27T01:15:26.564Z,1020.2
2022-11-27T01:16:30.075Z,1020.2
2022-11-27T01:17:33.309Z,1020.2
2022-11-27T01:18:36.738Z,1020.2
2022-11-27T01:19:39.519Z,1020.2
2022-11-27T01:20:42.596Z,1020.2
2022-11-27T01:21:45.596Z,1020.2
2022-11-27T01:22:48.794Z,1020.1
2022-11-27T01:23:51.876Z,1020.2
2022-11-27T01:24:55.950Z,1020.2
2022-11-27T01:25:59.447Z,1020.2
2022-11-27T01:27:01.399Z,1020.1
2022-11-27T01:28:04.382Z,1020.1
2022-11-27T01:29:06.813Z,1020.1
2022-11-27T01:30:10.141Z,1020.2
2022-11-27T01:31:13.167Z,1020.2
2022-11-27T01:32:16.150Z,1020.2
2022-11-27T01:33:19.934Z,1020.2
2022-11-27T01:34:22.773Z,1020.2
2022-11-27T01:35:25.648Z,1020.2
2022-11-27T01:36:28.721Z,1020.2
2022-11-27T01:37:31.703Z,1020.3
2022-11-27T01:38:34.192Z,1020.3
2022-11-27T01:39:37.219Z,1020.3
2022-11-27T01:40:41.324Z,1020.3
2022-11-27T01:41:44.673Z,1020.3
2022-11-27T01:42:47.174Z,1020.3
2022-11-27T01:43:50.144Z,1020.3
2022-11-27T01:44:53.273Z,1020.3
2022-11-27T01:45:56.344Z,1020.3
2022-11-27T01:47:00.257Z,1020.3
2022-11-27T01:48:02.909Z,1020.4
2022-11-27T01:49:05.681Z,1020.4
2022-11-27T01:50:08.380Z,1020.4
2022-11-27T01:51:10.581Z,1020.4
2022-11-27T01:52:13.423Z,1020.3
2022-11-27T01:53:16.552Z,1020.3
2022-11-27T01:54:19.527Z,1020.3
2022-11-27T01:55:22.896Z,1020.3
2022-11-27T01:56:26.677Z,1020.2
2022-11-27T01:57:30.094Z,1020.2
2022-11-27T01:58:32.878Z,1020.2
2022-11-27T01:59:36.287Z,1020.2
2022-11-27T02:00:39.048Z,1020.2
2022-11-27T02:01:42.251Z,1020.2
2022-11-27T02:02:45.474Z,1020.2
2022-11-27T02:03:49.286Z,1020.2
2022-11-27T02:04:52.262Z,1020.2
2022-11-27T02:05:55.385Z,1020.2
2022-11-27T02:06:58.516Z,1020.2
2022-11-27T02:08:02.159Z,1020.2
2022-11-27T02:09:05.333Z,1020.2
2022-11-27T02:10:08.661Z,1020.1
2022-11-27T02:11:11.138Z,1020.2
2022-11-27T02:12:14.689Z,1020.2
2022-11-27T02:13:17.539Z,1020.1
2022-11-27T02:14:20.672Z,1020.1
2022-11-27T02:15:23.444Z,1020.1
2022-11-27T02:16:25.697Z,1020.1
2022-11-27T02:17:28.725Z,1020.1
2022-11-27T02:18:30.663Z,1020.1
2022-11-27T02:19:34.111Z,1020
2022-11-27T02:20:36.072Z,1020
2022-11-27T02:21:38.779Z,1020.1
2022-11-27T02:22:41.469Z,1020
2022-11-27T02:23:44.448Z,1020.1
2022-11-27T02:24:47.242Z,1020.1
2022-11-27T02:25:50.213Z,1020
2022-11-27T02:26:53.848Z,1020.1
2022-11-27T02:27:56.545Z,1020
2022-11-27T02:28:59.481Z,1020
2022-11-27T02:30:02.918Z,1019.9
2022-11-27T02:31:05.815Z,1020
2022-11-27T02:32:09.460Z,1020
2022-11-27T02:33:12.330Z,1020
2022-11-27T02:34:14.469Z,1019.9
2022-11-27T02:35:17.280Z,1019.9
2022-11-27T02:36:20.881Z,1019.9
2022-11-27T02:37:23.943Z,1019.9
2022-11-27T02:38:27.297Z,1019.8
2022-11-27T02:39:31.088Z,1019.8
2022-11-27T02:40:34.168Z,1019.8
2022-11-27T02:41:37.215Z,1019.8
2022-11-27T02:42:40.586Z,1019.8
2022-11-27T02:43:44.963Z,1019.8
2022-11-27T02:44:47.819Z,1019.8
2022-11-27T02:45:50.793Z,1019.8
2022-11-27T02:46:53.844Z,1019.8
2022-11-27T02:47:57.031Z,1019.8
2022-11-27T02:49:00.005Z,1019.8
2022-11-27T02:50:03.443Z,1019.8
2022-11-27T02:51:06.666Z,1019.9
2022-11-27T02:52:09.189Z,1019.8
2022-11-27T02:53:11.681Z,1019.8
2022-11-27T02:54:14.438Z,1019.8
2022-11-27T02:55:17.225Z,1019.8
2022-11-27T02:56:20.642Z,1019.8
2022-11-27T02:57:24.132Z,1019.8
2022-11-27T02:58:27.772Z,1019.7
2022-11-27T02:59:32.114Z,1019.7
2022-11-27T03:00:34.540Z,1019.7
2022-11-27T03:01:37.744Z,1019.7
2022-11-27T03:02:41.348Z,1019.7
2022-11-27T03:03:45.080Z,1019.7
2022-11-27T03:04:47.294Z,1019.8
2022-11-27T03:05:50.736Z,1019.8
2022-11-27T03:06:53.919Z,1019.8
2022-11-27T03:07:56.654Z,1019.7
2022-11-27T03:08:59.894Z,1019.7
2022-11-27T03:10:03.014Z,1019.7
2022-11-27T03:11:06.275Z,1019.7
2022-11-27T03:12:09.051Z,1019.7
2022-11-27T03:13:12.214Z,1019.7
2022-11-27T03:14:15.701Z,1019.7
2022-11-27T03:15:20.405Z,1019.7
2022-11-27T03:16:23.755Z,1019.7
2022-11-27T03:17:27.206Z,1019.7
2022-11-27T03:18:29.902Z,1019.6
2022-11-27T03:19:32.879Z,1019.7
2022-11-27T03:20:36.077Z,1019.7
2022-11-27T03:21:38.658Z,1019.7
2022-11-27T03:22:41.717Z,1019.7
2022-11-27T03:23:44.838Z,1019.6
2022-11-27T03:24:48.222Z,1019.7
2022-11-27T03:25:50.995Z,1019.6
2022-11-27T03:26:53.137Z,1019.6
2022-11-27T03:27:56.264Z,1019.6
2022-11-27T03:28:58.566Z,1019.7
2022-11-27T03:30:02.225Z,1019.7
2022-11-27T03:31:12.769Z,1019.6
2022-11-27T03:32:16.883Z,1019.7
2022-11-27T03:33:19.448Z,1019.7
2022-11-27T03:34:22.248Z,1019.7
2022-11-27T03:35:24.885Z,1019.6
2022-11-27T03:36:28.168Z,1019.6
2022-11-27T03:37:30.588Z,1019.6
2022-11-27T03:38:33.725Z,1019.6
2022-11-27T03:39:36.216Z,1019.5
2022-11-27T03:40:38.910Z,1019.6
2022-11-27T03:41:41.613Z,1019.6
2022-11-27T03:42:44.585Z,1019.6
2022-11-27T03:43:46.877Z,1019.6
2022-11-27T03:44:49.933Z,1019.6
2022-11-27T03:45:52.411Z,1019.6
2022-11-27T03:47:02.729Z,1019.6
2022-11-27T03:48:11.191Z,1019.6
2022-11-27T03:49:14.769Z,1019.6
2022-11-27T03:50:17.685Z,1019.7
2022-11-27T03:51:20.447Z,1019.6
2022-11-27T03:52:23.514Z,1019.7
2022-11-27T03:53:26.589Z,1019.7
2022-11-27T03:54:29.418Z,1019.7
2022-11-27T03:55:32.246Z,1019.7
2022-11-27T03:56:35.020Z,1019.7
2022-11-27T03:57:37.588Z,1019.6
2022-11-27T03:58:40.285Z,1019.5
2022-11-27T03:59:43.110Z,1019.5
2022-11-27T04:00:46.156Z,1019.5
2022-11-27T04:01:49.667Z,1019.5
2022-11-27T04:02:54.364Z,1019.5
2022-11-27T04:03:57.645Z,1019.5
2022-11-27T04:05:01.622Z,1019.6
2022-11-27T04:06:04.768Z,1019.6
2022-11-27T04:07:07.742Z,1019.6
2022-11-27T04:08:09.669Z,1019.6
2022-11-27T04:09:13.266Z,1019.6
2022-11-27T04:10:15.773Z,1019.7
2022-11-27T04:11:18.469Z,1019.6
2022-11-27T04:12:21.185Z,1019.6
2022-11-27T04:13:23.682Z,1019.6
2022-11-27T04:14:26.177Z,1019.6
2022-11-27T04:15:28.597Z,1019.6
2022-11-27T04:16:31.223Z,1019.6
2022-11-27T04:17:34.423Z,1019.6
2022-11-27T04:18:38.570Z,1019.6
2022-11-27T04:19:41.747Z,1019.6
2022-11-27T04:20:44.330Z,1019.7
2022-11-27T04:21:47.681Z,1019.6
2022-11-27T04:22:50.020Z,1019.7
2022-11-27T04:23:54.005Z,1019.7
2022-11-27T04:24:57.069Z,1019.7
2022-11-27T04:25:59.491Z,1019.7
2022-11-27T04:27:02.861Z,1019.7
2022-11-27T04:28:05.927Z,1019.7
2022-11-27T04:29:09.183Z,1019.7
2022-11-27T04:30:12.592Z,1019.7
2022-11-27T04:31:15.696Z,1019.7
2022-11-27T04:32:18.764Z,1019.8
2022-11-27T04:33:21.704Z,1019.7
2022-11-27T04:34:25.791Z,1019.7
2022-11-27T04:35:28.748Z,1019.7
2022-11-27T04:36:39.564Z,1019.8
2022-11-27T04:37:42.556Z,1019.7
2022-11-27T04:38:45.704Z,1019.8
2022-11-27T04:39:48.474Z,1019.8
2022-11-27T04:40:51.611Z,1019.8
2022-11-27T04:41:54.733Z,1019.8
2022-11-27T04:42:57.440Z,1019.8
2022-11-27T04:44:00.794Z,1019.8
2022-11-27T04:45:03.295Z,1019.7
2022-11-27T04:46:06.244Z,1019.7
2022-11-27T04:47:09.654Z,1019.7
2022-11-27T04:48:12.645Z,1019.7
2022-11-27T04:49:15.935Z,1019.8
2022-11-27T04:50:20.143Z,1019.7
2022-11-27T04:51:22.680Z,1019.7
2022-11-27T04:52:26.766Z,1019.7
2022-11-27T04:53:29.242Z,1019.7
2022-11-27T04:54:32.236Z,1019.6
2022-11-27T04:55:34.445Z,1019.6
2022-11-27T04:56:37.685Z,1019.6
2022-11-27T04:57:40.728Z,1019.6
2022-11-27T04:58:43.775Z,1019.5
2022-11-27T04:59:46.624Z,1019.5
2022-11-27T05:00:49.863Z,1019.5
2022-11-27T05:01:52.803Z,1019.5
2022-11-27T05:02:55.885Z,1019.5
2022-11-27T05:03:59.873Z,1019.5
2022-11-27T05:05:02.929Z,1019.4
2022-11-27T05:06:12.563Z,1019.5
2022-11-27T05:07:16.018Z,1019.5
2022-11-27T05:08:19.528Z,1019.5
2022-11-27T05:09:22.279Z,1019.5
2022-11-27T05:10:24.823Z,1019.5
2022-11-27T05:11:27.519Z,1019.4
2022-11-27T05:12:30.921Z,1019.4
2022-11-27T05:13:34.270Z,1019.4
2022-11-27T05:14:36.790Z,1019.4
2022-11-27T05:15:40.140Z,1019.5
2022-11-27T05:16:43.857Z,1019.4
2022-11-27T05:17:46.829Z,1019.5
2022-11-27T05:18:49.524Z,1019.5
2022-11-27T05:19:51.943Z,1019.5
2022-11-27T05:20:55.130Z,1019.5
2022-11-27T05:21:58.529Z,1019.5
2022-11-27T05:23:01.610Z,1019.5
2022-11-27T05:24:04.777Z,1019.5
2022-11-27T05:25:07.341Z,1019.6
2022-11-27T05:26:10.139Z,1019.6
2022-11-27T05:27:12.358Z,1019.5
2022-11-27T05:28:14.857Z,1019.6
2022-11-27T05:29:18.205Z,1019.6
2022-11-27T05:30:20.859Z,1019.6
2022-11-27T05:31:23.537Z,1019.6
2022-11-27T05:32:27.008Z,1019.5
2022-11-27T05:33:30.346Z,1019.5
2022-11-27T05:34:33.113Z,1019.5
2022-11-27T05:35:35.882Z,1019.5
2022-11-27T05:36:38.853Z,1019.5
2022-11-27T05:37:42.661Z,1019.5
2022-11-27T05:38:52.349Z,1019.4
2022-11-27T05:40:01.745Z,1019.4
2022-11-27T05:41:05.915Z,1019.4
2022-11-27T05:42:08.329Z,1019.3
2022-11-27T05:43:10.469Z,1019.3
2022-11-27T05:44:12.959Z,1019.3
2022-11-27T05:45:15.728Z,1019.2
2022-11-27T05:46:18.997Z,1019.2
2022-11-27T05:47:22.304Z,1019.3
2022-11-27T05:48:25.282Z,1019.3
2022-11-27T05:49:28.646Z,1019.2
2022-11-27T05:50:31.068Z,1019.2
2022-11-27T05:51:34.679Z,1019.2
2022-11-27T05:52:37.880Z,1019.2
2022-11-27T05:53:42.223Z,1019.2
2022-11-27T05:54:44.839Z,1019.2
2022-11-27T05:55:48.374Z,1019.1
2022-11-27T05:56:51.538Z,1019.1
2022-11-27T05:57:54.785Z,1019.1
2022-11-27T05:58:57.107Z,1019.1
2022-11-27T05:59:59.955Z,1019.1
2022-11-27T06:01:02.762Z,1019.1
2022-11-27T06:02:05.646Z,1019.1
2022-11-27T06:03:09.170Z,1019.1
2022-11-27T06:04:12.800Z,1019.1
2022-11-27T06:05:15.779Z,1019.1
2022-11-27T06:06:18.827Z,1019.1
2022-11-27T06:07:22.416Z,1019.1
2022-11-27T06:08:26.105Z,1019.1
2022-11-27T06:09:30.136Z,1019
2022-11-27T06:10:33.024Z,1019
2022-11-27T06:11:35.912Z,1019
2022-11-27T06:12:39.132Z,1019
2022-11-27T06:13:42.283Z,1019
2022-11-27T06:14:45.322Z,1019
2022-11-27T06:15:48.455Z,1018.9
2022-11-27T06:16:51.129Z,1018.9
2022-11-27T06:17:53.813Z,1018.9
2022-11-27T06:18:56.027Z,1018.9
2022-11-27T06:19:59.075Z,1018.9
2022-11-27T06:21:02.121Z,1018.9
2022-11-27T06:22:04.825Z,1018.9
2022-11-27T06:23:07.524Z,1018.9
2022-11-27T06:24:10.258Z,1018.9
2022-11-27T06:25:13.715Z,1019
2022-11-27T06:26:16.881Z,1019
2022-11-27T06:27:20.130Z,1019
2022-11-27T06:28:22.795Z,1019
2022-11-27T06:29:25.290Z,1019
2022-11-27T06:30:28.699Z,1019
2022-11-27T06:31:32.484Z,1019
2022-11-27T06:32:36.315Z,1019
2022-11-27T06:33:39.184Z,1019
2022-11-27T06:34:42.530Z,1019
2022-11-27T06:35:45.042Z,1019
2022-11-27T06:36:48.725Z,1019
2022-11-27T06:37:51.574Z,1019
2022-11-27T06:38:55.286Z,1019
2022-11-27T06:39:58.917Z,1018.9
2022-11-27T06:41:02.654Z,1019
2022-11-27T06:42:05.538Z,1018.9
2022-11-27T06:43:08.069Z,1019
2022-11-27T06:44:11.308Z,1019
2022-11-27T06:45:14.943Z,1019
2022-11-27T06:46:17.081Z,1019
2022-11-27T06:47:20.876Z,1019
2022-11-27T06:48:23.365Z,1018.9
2022-11-27T06:49:26.705Z,1018.9
2022-11-27T06:50:29.764Z,1019
2022-11-27T06:51:32.921Z,1018.9
2022-11-27T06:52:40.933Z,1019
2022-11-27T06:53:44.083Z,1019
2022-11-27T06:54:47.174Z,1019
2022-11-27T06:55:50.273Z,1019
2022-11-27T06:56:54.010Z,1019
2022-11-27T06:57:56.555Z,1019
2022-11-27T06:58:59.163Z,1019
2022-11-27T07:00:02.426Z,1019
2022-11-27T07:01:04.727Z,1019
2022-11-27T07:02:08.397Z,1019
2022-11-27T07:03:11.800Z,1019
2022-11-27T07:04:15.124Z,1019
2022-11-27T07:05:17.902Z,1019
2022-11-27T07:06:20.593Z,1019
2022-11-27T07:07:23.566Z,1019
2022-11-27T07:08:26.220Z,1019
2022-11-27T07:09:29.847Z,1019
2022-11-27T07:10:32.612Z,1019
2022-11-27T07:11:35.979Z,1018.9
2022-11-27T07:12:39.432Z,1018.9
2022-11-27T07:13:47.754Z,1018.9
2022-11-27T07:14:51.670Z,1018.9
2022-11-27T07:15:54.317Z,1018.9
2022-11-27T07:16:57.670Z,1018.9
2022-11-27T07:18:00.942Z,1018.9
2022-11-27T07:19:03.647Z,1018.9
2022-11-27T07:20:06.643Z,1018.9
2022-11-27T07:21:09.619Z,1018.8
2022-11-27T07:22:11.914Z,1018.8
2022-11-27T07:23:14.715Z,1018.8
2022-11-27T07:24:17.498Z,1018.7
2022-11-27T07:25:19.802Z,1018.8
2022-11-27T07:26:23.492Z,1018.8
2022-11-27T07:27:26.414Z,1018.8
2022-11-27T07:28:30.141Z,1018.8
2022-11-27T07:29:33.004Z,1018.8
2022-11-27T07:30:35.805Z,1018.7
2022-11-27T07:31:39.378Z,1018.7
2022-11-27T07:32:42.119Z,1018.7
2022-11-27T07:33:44.824Z,1018.7
2022-11-27T07:34:47.598Z,1018.7
2022-11-27T07:35:50.745Z,1018.7
2022-11-27T07:36:53.579Z,1018.7
2022-11-27T07:37:56.508Z,1018.7
2022-11-27T07:38:59.018Z,1018.7
2022-11-27T07:40:03.962Z,1018.7
2022-11-27T07:41:06.678Z,1018.7
2022-11-27T07:42:38.883Z,1018.7
2022-11-27T07:43:43.368Z,1018.7
2022-11-27T07:44:46.770Z,1018.7
2022-11-27T07:45:50.533Z,1018.7
2022-11-27T07:46:54.013Z,1018.7
2022-11-27T07:47:57.646Z,1018.7
2022-11-27T07:49:00.942Z,1018.6
2022-11-27T07:50:03.459Z,1018.6
2022-11-27T07:51:06.543Z,1018.6
2022-11-27T07:52:09.860Z,1018.5
2022-11-27T07:53:12.571Z,1018.5
2022-11-27T07:54:14.800Z,1018.5
2022-11-27T07:55:17.595Z,1018.4
2022-11-27T07:56:21.299Z,1018.4
2022-11-27T07:57:24.965Z,1018.5
2022-11-27T07:58:28.142Z,1018.4
2022-11-27T07:59:32.270Z,1018.4
2022-11-27T08:00:35.901Z,1018.4
2022-11-27T08:01:39.230Z,1018.3
2022-11-27T08:02:42.647Z,1018.4
2022-11-27T08:03:44.897Z,1018.3
2022-11-27T08:04:48.268Z,1018.3
2022-11-27T08:05:50.978Z,1018.3
2022-11-27T08:06:54.111Z,1018.3
2022-11-27T08:07:57.513Z,1018.2
2022-11-27T08:09:01.188Z,1018.3
2022-11-27T08:10:03.729Z,1018.3
2022-11-27T08:11:06.846Z,1018.2
2022-11-27T08:12:09.433Z,1018.3
2022-11-27T08:13:12.215Z,1018.2
2022-11-27T08:14:15.173Z,1018.2
2022-11-27T08:15:19.014Z,1018.3
2022-11-27T08:16:22.546Z,1018.2
2022-11-27T08:17:26.674Z,1018.2
2022-11-27T08:18:30.367Z,1018.2
2022-11-27T08:19:32.595Z,1018.2
2022-11-27T08:20:35.097Z,1018.2
2022-11-27T08:21:37.509Z,1018.3
2022-11-27T08:22:40.411Z,1018.2
2022-11-27T08:23:43.438Z,1018.2
2022-11-27T08:24:45.996Z,1018.2
2022-11-27T08:25:48.762Z,1018.2
2022-11-27T08:26:51.259Z,1018.2
2022-11-27T08:27:53.509Z,1018.2
2022-11-27T08:28:57.196Z,1018.2
2022-11-27T08:29:59.811Z,1018.2
2022-11-27T08:31:03.684Z,1018.2
2022-11-27T08:32:06.722Z,1018.2
2022-11-27T08:33:10.494Z,1018.2
2022-11-27T08:34:13.643Z,1018.3
2022-11-27T08:35:16.008Z,1018.3
2022-11-27T08:36:19.766Z,1018.3
2022-11-27T08:37:23.202Z,1018.3
2022-11-27T08:38:26.653Z,1018.3
2022-11-27T08:39:29.534Z,1018.4
2022-11-27T08:40:32.865Z,1018.4
2022-11-27T08:41:36.291Z,1018.4
2022-11-27T08:42:39.696Z,1018.4
2022-11-27T08:43:43.024Z,1018.4
2022-11-27T08:44:45.791Z,1018.4
2022-11-27T08:45:49.327Z,1018.4
2022-11-27T08:46:53.387Z,1018.4
2022-11-27T08:47:56.721Z,1018.5
2022-11-27T08:49:00.069Z,1018.5
2022-11-27T08:50:02.983Z,1018.5
2022-11-27T08:51:05.753Z,1018.5
2022-11-27T08:52:08.691Z,1018.5
2022-11-27T08:53:11.813Z,1018.4
2022-11-27T08:54:14.507Z,1018.5
2022-11-27T08:55:17.657Z,1018.5
2022-11-27T08:56:19.868Z,1018.5
2022-11-27T08:57:22.925Z,1018.5
2022-11-27T08:58:26.251Z,1018.5
2022-11-27T08:59:28.956Z,1018.5
2022-11-27T09:00:31.368Z,1018.5
2022-11-27T09:01:34.471Z,1018.5
2022-11-27T09:02:38.495Z,1018.5
2022-11-27T09:03:41.717Z,1018.5
2022-11-27T09:04:45.276Z,1018.6
2022-11-27T09:05:49.061Z,1018.6
2022-11-27T09:06:58.949Z,1018.6
2022-11-27T09:08:02.164Z,1018.6
2022-11-27T09:09:05.448Z,1018.6
2022-11-27T09:10:09.057Z,1018.6
2022-11-27T09:11:12.569Z,1018.6
2022-11-27T09:12:15.266Z,1018.5
2022-11-27T09:13:18.053Z,1018.5
2022-11-27T09:14:20.834Z,1018.5
2022-11-27T09:15:24.166Z,1018.5
2022-11-27T09:16:27.380Z,1018.5
2022-11-27T09:17:31.297Z,1018.5
2022-11-27T09:18:35.124Z,1018.4
2022-11-27T09:19:38.826Z,1018.4
2022-11-27T09:20:42.090Z,1018.4
2022-11-27T09:21:45.308Z,1018.3
2022-11-27T09:22:48.726Z,1018.3
2022-11-27T09:23:51.162Z,1018.2
2022-11-27T09:24:54.485Z,1018.2
2022-11-27T09:25:58.181Z,1018.2
2022-11-27T09:27:01.280Z,1018.2
2022-11-27T09:28:04.161Z,1018.1
2022-11-27T09:29:07.212Z,1018.1
2022-11-27T09:30:09.726Z,1018.1
2022-11-27T09:31:12.591Z,1018.1
2022-11-27T09:32:15.668Z,1018.2
2022-11-27T09:33:19.122Z,1018.3
2022-11-27T09:34:23.248Z,1018.4
2022-11-27T09:35:26.759Z,1018.5
2022-11-27T09:36:30.398Z,1018.4
2022-11-27T09:37:33.883Z,1018.4
2022-11-27T09:38:36.570Z,1018.4
2022-11-27T09:39:38.984Z,1018.4
2022-11-27T09:40:41.404Z,1018.4
2022-11-27T09:41:44.892Z,1018.4
2022-11-27T09:42:48.013Z,1018.4
2022-11-27T09:43:50.930Z,1018.3
2022-11-27T09:44:53.701Z,1018.4
2022-11-27T09:45:57.026Z,1018.4
2022-11-27T09:47:00.278Z,1018.4
2022-11-27T09:48:03.340Z,1018.3
2022-11-27T09:49:06.167Z,1018.3
2022-11-27T09:50:10.301Z,1018.2
2022-11-27T09:51:13.632Z,1018.2
2022-11-27T09:52:16.359Z,1018.1
2022-11-27T09:53:19.793Z,1018.2
2022-11-27T09:54:22.772Z,1018.2
2022-11-27T09:55:25.564Z,1018.1
2022-11-27T09:56:28.825Z,1018.1
2022-11-27T09:57:31.669Z,1018.1
2022-11-27T09:58:34.655Z,1018
2022-11-27T09:59:37.706Z,1018
2022-11-27T10:00:41.137Z,1018
2022-11-27T10:01:51.351Z,1017.9
2022-11-27T10:02:55.498Z,1017.9
2022-11-27T10:03:59.104Z,1017.9
2022-11-27T10:05:18.502Z,1017.9
2022-11-27T10:06:25.572Z,1017.9
2022-11-27T10:07:29.425Z,1017.8
2022-11-27T10:08:32.863Z,1017.9
2022-11-27T10:09:35.740Z,1017.9
2022-11-27T10:10:38.509Z,1017.9
2022-11-27T10:11:41.849Z,1017.8
2022-11-27T10:12:45.198Z,1017.8
2022-11-27T10:13:48.346Z,1017.9
2022-11-27T10:14:51.524Z,1017.9
2022-11-27T10:15:54.872Z,1017.9
2022-11-27T10:16:57.367Z,1017.8
2022-11-27T10:18:01.332Z,1017.9
2022-11-27T10:19:03.816Z,1017.9
2022-11-27T10:20:07.254Z,1017.9
2022-11-27T10:21:10.326Z,1017.9
